createdAt,value
2022-09-06T00:01:22.343Z,100175.28
2022-09-06T00:05:27.022Z,100175.38
2022-09-06T00:09:30.146Z,100175.53
2022-09-06T00:13:33.873Z,100175.59
2022-09-06T00:17:37.050Z,100171.19
2022-09-06T00:21:41.530Z,100170.41
2022-09-06T00:25:45.090Z,100162.44
2022-09-06T00:29:48.226Z,100158.06
2022-09-06T00:33:51.970Z,100167.19
2022-09-06T00:37:59.545Z,100170.00
2022-09-06T00:42:02.714Z,100171.97
2022-09-06T00:46:07.482Z,100168.59
2022-09-06T00:50:13.028Z,100173.16
2022-09-06T00:54:17.778Z,100164.31
2022-09-06T00:58:21.010Z,100168.94
2022-09-06T01:02:24.514Z,100166.44
2022-09-06T01:06:38.715Z,100170.28
2022-09-06T01:11:06.664Z,100164.25
2022-09-06T01:15:19.643Z,100163.47
2022-09-06T01:19:56.608Z,100156.56
2022-09-06T01:24:36.168Z,100153.06
2022-09-06T01:28:43.938Z,100152.31
2022-09-06T01:32:57.659Z,100148.84
2022-09-06T01:37:10.290Z,100160.47
2022-09-06T01:41:13.752Z,100166.78
2022-09-06T01:45:21.495Z,100156.13
2022-09-06T01:49:34.882Z,100149.94
2022-09-06T01:53:52.050Z,100155.31
2022-09-06T01:58:11.619Z,100149.22
2022-09-06T02:02:26.810Z,100142.09
2022-09-06T02:06:34.059Z,100136.78
2022-09-06T02:10:42.395Z,100142.19
2022-09-06T02:14:54.564Z,100136.09
2022-09-06T02:19:04.588Z,100135.28
2022-09-06T02:23:09.426Z,100122.09
2022-09-06T02:27:14.546Z,100124.00
2022-09-06T02:31:22.748Z,100127.75
2022-09-06T02:35:27.766Z,100127.09
2022-09-06T02:39:30.919Z,100126.28
2022-09-06T02:43:34.355Z,100128.13
2022-09-06T02:47:37.724Z,100132.66
2022-09-06T02:51:42.768Z,100130.91
2022-09-06T02:55:47.795Z,100143.38
2022-09-06T02:59:51.496Z,100130.06
2022-09-06T03:03:54.852Z,100126.53
2022-09-06T03:07:59.860Z,100131.88
2022-09-06T03:12:03.124Z,100133.66
2022-09-06T03:16:06.363Z,100122.16
2022-09-06T03:20:11.607Z,100119.63
2022-09-06T03:24:18.732Z,100121.44
2022-09-06T03:28:22.862Z,100120.59
2022-09-06T03:32:26.007Z,100118.00
2022-09-06T03:36:29.696Z,100115.41
2022-09-06T03:40:34.649Z,100124.28
2022-09-06T03:44:44.111Z,100111.97
2022-09-06T03:48:47.452Z,100109.34
2022-09-06T03:52:50.617Z,100114.75
2022-09-06T03:56:55.187Z,100113.94
2022-09-06T04:01:03.201Z,100122.81
2022-09-06T04:05:06.934Z,100132.69
2022-09-06T04:09:10.022Z,100127.41
2022-09-06T04:13:14.528Z,100123.13
2022-09-06T04:17:17.615Z,100139.25
2022-09-06T04:21:20.783Z,100134.84
2022-09-06T04:25:24.037Z,100138.50
2022-09-06T04:29:28.533Z,100135.06
2022-09-06T04:33:32.407Z,100131.69
2022-09-06T04:37:35.518Z,100139.84
2022-09-06T04:41:38.595Z,100137.31
2022-09-06T04:45:43.912Z,100145.44
2022-09-06T04:49:48.295Z,100140.97
2022-09-06T04:53:51.657Z,100142.78
2022-09-06T04:57:55.290Z,100145.47
2022-09-06T05:02:00.111Z,100143.69
2022-09-06T05:06:08.522Z,100141.06
2022-09-06T05:10:11.962Z,100142.88
2022-09-06T05:14:15.266Z,100145.59
2022-09-06T05:18:19.725Z,100142.91
2022-09-06T05:22:22.823Z,100150.00
2022-09-06T05:26:26.199Z,100155.31
2022-09-06T05:30:29.294Z,100159.75
2022-09-06T05:34:34.052Z,100150.84
2022-09-06T05:38:37.364Z,100152.53
2022-09-06T05:42:41.536Z,100156.00
2022-09-06T05:46:45.431Z,100155.94
2022-09-06T05:51:00.049Z,100159.38
2022-09-06T05:55:03.619Z,100165.53
2022-09-06T05:59:07.007Z,100158.25
2022-09-06T06:03:10.083Z,100155.50
2022-09-06T06:07:15.607Z,100153.59
2022-09-06T06:11:19.259Z,100159.59
2022-09-06T06:15:22.316Z,100154.06
2022-09-06T06:19:26.708Z,100159.22
2022-09-06T06:23:31.372Z,100157.16
2022-09-06T06:27:36.880Z,100161.44
2022-09-06T06:31:40.191Z,100168.34
2022-09-06T06:35:43.751Z,100161.94
2022-09-06T06:39:48.485Z,100152.78
2022-09-06T06:43:53.383Z,100156.09
2022-09-06T06:47:56.673Z,100157.63
2022-09-06T06:52:00.133Z,100161.84
2022-09-06T06:56:15.236Z,100160.72
2022-09-06T07:00:19.737Z,100156.81
2022-09-06T07:04:23.194Z,100158.13
2022-09-06T07:08:26.486Z,100159.66
2022-09-06T07:12:31.141Z,100158.25
2022-09-06T07:16:34.347Z,100148.91
2022-09-06T07:25:01.121Z,100156.56
2022-09-06T07:29:06.962Z,100157.69
2022-09-06T07:33:10.299Z,100159.88
2022-09-06T07:37:13.608Z,100162.75
2022-09-06T07:41:17.495Z,100169.28
2022-09-06T07:45:21.985Z,100159.91
2022-09-06T07:49:25.143Z,100166.41
2022-09-06T07:53:31.203Z,100172.31
2022-09-06T07:57:34.613Z,100165.59
2022-09-06T08:01:40.389Z,100171.19
2022-09-06T08:10:07.467Z,100164.53
2022-09-06T08:14:11.362Z,100161.19
2022-09-06T08:18:16.059Z,100160.63
2022-09-06T08:22:19.526Z,100161.13
2022-09-06T08:26:29.034Z,100154.44
2022-09-06T08:30:32.367Z,100157.38
2022-09-06T08:34:43.683Z,100147.94
2022-09-06T08:38:46.971Z,100145.63
2022-09-06T08:42:50.579Z,100141.53
2022-09-06T08:46:59.213Z,100143.91
2022-09-06T08:51:20.084Z,100142.63
2022-09-06T08:55:35.264Z,100145.78
2022-09-06T08:59:40.378Z,100142.88
2022-09-06T09:03:44.875Z,100136.31
2022-09-06T09:07:57.045Z,100131.31
2022-09-06T09:12:02.022Z,100128.28
2022-09-06T09:16:06.334Z,100119.06
2022-09-06T09:20:10.315Z,100124.81
2022-09-06T09:24:16.352Z,100119.63
2022-09-06T09:28:24.114Z,100113.66
2022-09-06T09:32:32.062Z,100101.75
2022-09-06T09:36:35.352Z,100094.19
2022-09-06T09:40:42.037Z,100093.69
2022-09-06T09:44:45.867Z,100086.00
2022-09-06T09:49:03.284Z,100081.97
2022-09-06T09:53:10.421Z,100079.56
2022-09-06T09:57:18.782Z,100064.59
2022-09-06T10:01:26.682Z,100058.31
2022-09-06T10:05:30.235Z,100061.41
2022-09-06T10:09:36.983Z,100057.47
2022-09-06T10:13:43.235Z,100053.66
2022-09-06T10:17:50.433Z,100053.19
2022-09-06T10:21:59.695Z,100046.63
2022-09-06T10:26:07.346Z,100049.44
2022-09-06T10:30:14.505Z,100053.56
2022-09-06T10:34:48.807Z,100047.75
2022-09-06T10:38:57.547Z,100049.84
2022-09-06T10:43:08.780Z,100049.84
2022-09-06T10:47:15.968Z,100055.78
2022-09-06T10:51:30.998Z,100052.63
2022-09-06T10:55:34.564Z,100044.81
2022-09-06T10:59:43.063Z,100046.72
2022-09-06T11:12:34.150Z,100038.72
2022-09-06T11:16:44.732Z,100034.78
2022-09-06T11:21:03.337Z,100030.66
2022-09-06T11:25:29.695Z,100027.88
2022-09-06T11:29:34.268Z,100019.78
2022-09-06T11:33:39.920Z,100020.06
2022-09-06T11:37:49.658Z,100009.31
2022-09-06T11:41:52.691Z,100011.53
2022-09-06T11:45:55.937Z,100006.44
2022-09-06T11:49:59.127Z,100009.56
2022-09-06T11:54:21.883Z,100008.03
2022-09-06T11:58:29.929Z,100008.44
2022-09-06T12:02:38.406Z,100009.91
2022-09-06T12:06:43.805Z,100006.25
2022-09-06T12:10:56.726Z,100003.81
2022-09-06T12:15:13.127Z,100002.13
2022-09-06T12:19:44.070Z,99998.28
2022-09-06T12:23:47.541Z,99988.66
2022-09-06T12:27:58.148Z,99979.22
2022-09-06T12:32:02.067Z,99985.19
2022-09-06T12:36:15.362Z,99985.78
2022-09-06T12:40:20.685Z,99975.38
2022-09-06T12:44:31.760Z,99970.34
2022-09-06T12:48:41.225Z,99963.88
2022-09-06T12:52:50.669Z,99962.81
2022-09-06T12:56:55.012Z,99958.66
2022-09-06T13:01:08.638Z,99954.59
2022-09-06T13:05:13.410Z,99947.25
2022-09-06T13:09:20.429Z,99946.09
2022-09-06T13:13:26.118Z,99942.31
2022-09-06T13:17:31.524Z,99934.09
2022-09-06T13:21:35.405Z,99930.25
2022-09-06T13:25:49.551Z,99933.91
2022-09-06T13:29:57.520Z,99923.38
2022-09-06T13:34:02.268Z,99923.38
2022-09-06T13:38:33.708Z,99920.78
2022-09-06T13:42:37.840Z,99917.03
2022-09-06T13:46:41.323Z,99912.47
2022-09-06T13:50:45.830Z,99925.13
2022-09-06T13:54:49.093Z,99912.41
2022-09-06T13:58:52.350Z,99919.19
2022-09-06T14:02:55.871Z,99908.66
2022-09-06T14:07:00.523Z,99916.09
2022-09-06T14:11:03.935Z,99910.09
2022-09-06T14:15:08.347Z,99915.41
2022-09-06T14:19:11.806Z,99904.69
2022-09-06T14:23:16.350Z,99908.16
2022-09-06T14:27:19.698Z,99911.06
2022-09-06T14:31:25.980Z,99896.78
2022-09-06T14:35:29.186Z,99904.13
2022-09-06T14:39:33.721Z,99898.19
2022-09-06T14:43:37.838Z,99894.72
2022-09-06T14:47:41.503Z,99895.22
2022-09-06T14:51:45.964Z,99894.44
2022-09-06T14:55:50.574Z,99883.63
2022-09-06T14:59:53.868Z,99890.97
2022-09-06T15:03:58.932Z,99894.66
2022-09-06T15:08:02.496Z,99899.25
2022-09-06T15:12:07.341Z,99892.31
2022-09-06T15:16:11.932Z,99896.78
2022-09-06T15:20:15.172Z,99888.66
2022-09-06T15:24:18.791Z,99893.28
2022-09-06T15:28:23.362Z,99891.38
2022-09-06T15:32:26.717Z,99887.09
2022-09-06T15:36:30.288Z,99889.97
2022-09-06T15:40:33.583Z,99882.00
2022-09-06T15:44:38.340Z,99888.53
2022-09-06T15:48:43.702Z,99894.94
2022-09-06T15:52:46.887Z,99886.31
2022-09-06T15:56:50.407Z,99880.44
2022-09-06T16:01:07.821Z,99886.50
2022-09-06T16:05:11.255Z,99881.25
2022-09-06T16:09:17.591Z,99873.41
2022-09-06T16:13:20.815Z,99887.31
2022-09-06T16:17:27.512Z,99891.41
2022-09-06T16:21:32.931Z,99883.69
2022-09-06T16:25:36.343Z,99886.56
2022-09-06T16:29:39.611Z,99886.75
2022-09-06T16:33:45.660Z,99883.25
2022-09-06T16:37:49.123Z,99889.03
2022-09-06T16:41:52.736Z,99889.22
2022-09-06T16:45:59.812Z,99892.09
2022-09-06T16:50:05.075Z,99878.97
2022-09-06T16:54:08.507Z,99885.09
2022-09-06T16:58:11.739Z,99889.25
2022-09-06T17:02:15.038Z,99892.34
2022-09-06T17:06:21.298Z,99900.03
2022-09-06T17:10:24.522Z,99891.75
2022-09-06T17:14:27.893Z,99900.38
2022-09-06T17:18:31.294Z,99902.78
2022-09-06T17:22:36.410Z,99899.66
2022-09-06T17:26:40.390Z,99901.84
2022-09-06T17:30:43.736Z,99906.63
2022-09-06T17:34:47.164Z,99917.09
2022-09-06T17:38:53.568Z,99920.03
2022-09-06T17:42:57.112Z,99927.66
2022-09-06T17:47:12.623Z,99925.19
2022-09-06T17:51:17.016Z,99933.75
2022-09-06T17:55:21.988Z,99932.34
2022-09-06T17:59:25.360Z,99932.84
2022-09-06T18:03:28.563Z,99937.47
2022-09-06T18:07:32.905Z,99935.00
2022-09-06T18:11:39.254Z,99934.22
2022-09-06T18:15:42.791Z,99935.94
2022-09-06T18:19:46.204Z,99940.53
2022-09-06T18:23:49.595Z,99931.81
2022-09-06T18:27:54.248Z,99942.81
2022-09-06T18:31:58.002Z,99942.09
2022-09-06T18:36:02.120Z,99945.91
2022-09-06T18:40:06.450Z,99956.16
2022-09-06T18:44:11.572Z,99960.19
2022-09-06T18:48:16.029Z,99963.25
2022-09-06T18:52:20.778Z,99959.28
2022-09-06T18:56:24.838Z,99959.56
2022-09-06T19:00:29.595Z,99958.75
2022-09-06T19:04:33.118Z,99958.91
2022-09-06T19:08:36.823Z,99954.63
2022-09-06T19:12:40.692Z,99958.47
2022-09-06T19:16:46.479Z,99961.50
2022-09-06T19:20:57.883Z,99964.63
2022-09-06T19:25:01.295Z,99959.44
2022-09-06T19:29:06.935Z,99966.06
2022-09-06T19:33:12.114Z,99956.75
2022-09-06T19:37:17.367Z,99956.38
2022-09-06T19:41:20.601Z,99958.25
2022-09-06T19:45:23.770Z,99959.50
2022-09-06T19:49:29.574Z,99950.84
2022-09-06T19:53:33.307Z,99959.31
2022-09-06T19:57:36.496Z,99953.38
2022-09-06T20:01:41.270Z,99952.03
2022-09-06T20:05:45.934Z,99956.91
2022-09-06T20:09:52.432Z,99955.16
2022-09-06T20:13:56.377Z,99956.09
2022-09-06T20:17:59.694Z,99946.28
2022-09-06T20:22:04.521Z,99944.75
2022-09-06T20:26:10.279Z,99946.69
2022-09-06T20:30:13.727Z,99943.47
2022-09-06T20:34:19.443Z,99946.56
2022-09-06T20:38:24.786Z,99948.72
2022-09-06T20:42:28.177Z,99945.38
2022-09-06T20:46:33.982Z,99937.50
2022-09-06T20:50:37.504Z,99919.72
2022-09-06T20:54:42.335Z,99915.44
2022-09-06T20:58:49.765Z,99930.88
2022-09-06T21:02:53.205Z,99925.91
2022-09-06T21:06:56.639Z,99925.28
2022-09-06T21:11:02.205Z,99933.50
2022-09-06T21:15:06.396Z,99931.88
2022-09-06T21:19:11.264Z,99928.63
2022-09-06T21:23:14.707Z,99934.38
2022-09-06T21:27:19.569Z,99934.59
2022-09-06T21:31:24.525Z,99920.50
2022-09-06T21:35:27.812Z,99918.88
2022-09-06T21:39:31.207Z,99914.53
2022-09-06T21:43:36.503Z,99924.56
2022-09-06T21:47:39.971Z,99917.81
2022-09-06T21:51:43.958Z,99914.50
2022-09-06T21:55:47.202Z,99915.56
2022-09-06T21:59:51.791Z,99915.66
2022-09-06T22:03:55.473Z,99909.47
2022-09-06T22:07:58.809Z,99907.75
2022-09-06T22:12:02.148Z,99907.78
2022-09-06T22:16:08.212Z,99914.31
2022-09-06T22:20:12.441Z,99914.53
2022-09-06T22:24:17.506Z,99913.00
2022-09-06T22:28:21.377Z,99906.03
2022-09-06T22:32:26.137Z,99903.56
2022-09-06T22:36:29.805Z,99902.03
2022-09-06T22:40:33.032Z,99905.88
2022-09-06T22:44:36.393Z,99898.91
2022-09-06T22:48:41.167Z,99903.34
2022-09-06T22:52:44.360Z,99900.69
2022-09-06T22:56:47.727Z,99902.56
2022-09-06T23:00:51.370Z,99902.66
2022-09-06T23:04:56.113Z,99896.50
2022-09-06T23:09:00.114Z,99901.03
2022-09-06T23:13:03.280Z,99896.78
2022-09-06T23:17:06.564Z,99894.25
2022-09-06T23:21:13.171Z,99885.56
2022-09-06T23:25:16.540Z,99883.97
2022-09-06T23:29:20.000Z,99888.59
2022-09-06T23:33:23.684Z,99883.25
2022-09-06T23:37:28.438Z,99876.28
2022-09-06T23:41:32.059Z,99874.66
2022-09-06T23:45:35.284Z,99855.16
2022-09-06T23:49:38.679Z,99846.31
2022-09-06T23:53:43.629Z,99855.34
2022-09-06T23:57:46.806Z,99858.09
